Time;durP1;ratioP1;P1;durP2;ratioP2;P2;SDS_P1;SDS_P2;PMS_P1;PMS_P2;Temp;Humidity;BMP_temperature;BMP_pressure;BME280_temperature;BME280_humidity;BME280_pressure;Samples;Min_cycle;Max_cycle;Signal;HPM_P1;HPM_P2
2023/10/08 00:01:19;;;;;;;12.77;5.07;;;;;;;17.81;44.34;98291.75;5035121;28;20503;-72
2023/10/08 00:03:49;;;;;;;7.20;4.00;;;;;;;17.89;44.31;98278.47;5037359;28;20810;-71
2023/10/08 00:06:21;;;;;;;7.17;4.53;;;;;;;17.90;44.00;98284.59;5030122;28;20492;-70
2023/10/08 00:08:47;;;;;;;10.63;5.50;;;;;;;17.91;43.82;98278.28;5032579;28;20457;-70
2023/10/08 00:11:15;;;;;;;9.77;5.20;;;;;;;17.89;43.89;98262.56;5032516;28;20454;-73
2023/10/08 00:13:41;;;;;;;8.60;4.73;;;;;;;17.88;43.97;98268.88;5042330;28;20282;-71
2023/10/08 00:16:11;;;;;;;9.90;5.03;;;;;;;17.87;43.88;98256.59;5034750;28;20434;-70
2023/10/08 00:18:37;;;;;;;12.03;5.43;;;;;;;17.90;43.89;98247.47;5033200;28;20453;-70
2023/10/08 00:21:16;;;;;;;8.93;5.37;;;;;;;17.92;43.94;98256.88;5033578;28;20545;-70
2023/10/08 00:23:43;;;;;;;9.17;5.37;;;;;;;17.94;43.72;98254.91;5041657;28;21017;-70
2023/10/08 00:26:09;;;;;;;9.70;5.00;;;;;;;17.95;43.25;98253.91;5038488;28;20449;-70
2023/10/08 00:28:35;;;;;;;9.00;4.33;;;;;;;17.94;43.28;98256.72;5034709;28;20431;-70
2023/10/08 00:31:11;;;;;;;11.83;5.13;;;;;;;17.96;43.42;98262.66;5030506;28;20216;-71
2023/10/08 00:33:38;;;;;;;11.47;5.23;;;;;;;17.99;43.41;98269.50;5029610;28;20308;-71
2023/10/08 00:36:17;;;;;;;10.07;5.37;;;;;;;17.99;43.72;98258.88;5030516;28;20445;-69
2023/10/08 00:38:53;;;;;;;7.90;5.10;;;;;;;17.98;43.85;98259.88;5030353;28;21022;-70
2023/10/08 00:41:21;;;;;;;7.50;4.70;;;;;;;18.02;43.21;98261.19;5035615;28;20458;-68
2023/10/08 00:43:47;;;;;;;11.40;5.10;;;;;;;18.02;42.83;98256.72;5042502;28;20482;-70
2023/10/08 00:48:46;;;;;;;5.20;4.07;;;;;;;18.07;41.78;98250.88;5029491;28;20423;-70
2023/10/08 00:51:25;;;;;;;8.37;4.80;;;;;;;18.09;42.41;98256.84;5012084;28;20545;-70
2023/10/08 00:54:08;;;;;;;9.67;4.27;;;;;;;18.08;42.46;98244.56;5030034;28;21065;-70
2023/10/08 00:56:46;;;;;;;8.47;4.47;;;;;;;18.13;41.55;98236.94;5037880;28;20436;-70
2023/10/08 00:59:15;;;;;;;9.03;4.43;;;;;;;18.16;41.24;98235.75;5025870;28;20469;-71
2023/10/08 01:01:51;;;;;;;7.33;4.43;;;;;;;18.20;40.58;98232.56;5021711;28;20430;-70
2023/10/08 01:04:26;;;;;;;7.93;3.83;;;;;;;18.25;40.48;98230.22;5036858;28;21023;-70
2023/10/08 01:07:01;;;;;;;8.00;3.60;;;;;;;18.32;40.05;98235.63;5033988;28;20445;-71
2023/10/08 01:09:35;;;;;;;8.30;4.90;;;;;;;18.38;40.36;98231.44;5037226;28;20460;-71
2023/10/08 01:12:43;;;;;;;8.10;4.00;;;;;;;18.39;41.29;98230.44;5032483;28;20449;-68
2023/10/08 01:15:28;;;;;;;7.80;4.20;;;;;;;18.33;41.73;98231.16;5028014;28;20450;-69
2023/10/08 01:17:59;;;;;;;8.87;4.30;;;;;;;18.28;41.79;98234.34;5037504;28;21012;-70
2023/10/08 01:20:34;;;;;;;4.93;3.90;;;;;;;18.28;42.11;98229.03;5037474;28;20450;-71
2023/10/08 01:23:10;;;;;;;7.30;4.20;;;;;;;18.26;42.02;98215.94;5031347;28;20524;-70
2023/10/08 01:25:51;;;;;;;4.33;3.43;;;;;;;18.23;42.13;98221.59;5028910;28;20526;-70
2023/10/08 01:28:25;;;;;;;6.90;4.10;;;;;;;18.20;42.01;98226.44;5028082;28;20427;-70
2023/10/08 01:30:54;;;;;;;11.03;4.47;;;;;;;18.19;42.22;98230.91;5029651;28;20507;-71
2023/10/08 01:33:20;;;;;;;8.87;4.43;;;;;;;18.14;42.88;98224.47;5042123;28;20438;-71
2023/10/08 01:35:48;;;;;;;9.20;4.13;;;;;;;18.11;42.65;98223.00;5027943;28;20430;-72
2023/10/08 01:38:14;;;;;;;6.83;4.07;;;;;;;18.07;42.99;98224.34;5028406;28;20517;-69
2023/10/08 01:40:42;;;;;;;13.40;4.30;;;;;;;18.02;43.28;98227.53;5037052;28;20968;-69
2023/10/08 01:43:10;;;;;;;14.77;5.00;;;;;;;17.95;43.74;98230.03;5039827;28;20191;-72
2023/10/08 01:45:40;;;;;;;7.83;4.00;;;;;;;17.94;43.83;98227.56;5029309;28;20430;-71
2023/10/08 01:48:09;;;;;;;9.23;3.77;;;;;;;17.95;43.72;98229.22;5029174;28;20474;-70
2023/10/08 01:50:35;;;;;;;13.83;4.47;;;;;;;17.87;43.88;98223.94;5032096;28;20533;-70
2023/10/08 01:53:00;;;;;;;9.27;3.97;;;;;;;17.82;44.31;98224.47;5040920;28;20468;-71
2023/10/08 01:55:26;;;;;;;7.80;4.40;;;;;;;17.83;44.41;98225.31;5039127;28;20458;-70
2023/10/08 01:57:52;;;;;;;7.30;4.10;;;;;;;17.77;44.44;98227.63;5027480;28;20563;-69
2023/10/08 02:00:22;;;;;;;9.77;4.80;;;;;;;17.69;44.94;98230.34;5028380;28;20726;-70
2023/10/08 02:02:50;;;;;;;6.60;4.40;;;;;;;17.71;44.56;98225.66;5046665;28;20184;-71
2023/10/08 02:05:18;;;;;;;6.57;3.90;;;;;;;17.69;44.73;98232.16;5029205;28;20426;-71
2023/10/08 02:07:48;;;;;;;9.97;4.33;;;;;;;17.66;44.81;98231.50;5020351;28;20442;-73
2023/10/08 02:10:16;;;;;;;8.30;4.10;;;;;;;17.65;44.71;98229.84;5012739;28;20447;-71
2023/10/08 02:12:41;;;;;;;10.73;4.43;;;;;;;17.61;44.90;98231.19;5030300;28;20455;-69
2023/10/08 02:15:08;;;;;;;11.57;3.83;;;;;;;17.55;45.28;98226.56;5021261;28;20791;-70
2023/10/08 02:17:34;;;;;;;8.60;4.07;;;;;;;17.53;45.38;98239.16;5030554;28;20265;-70
2023/10/08 02:20:00;;;;;;;12.90;4.30;;;;;;;17.53;45.48;98241.00;5029036;28;20990;-71
2023/10/08 02:22:25;;;;;;;11.80;4.10;;;;;;;17.47;45.58;98245.16;5029211;28;20431;-70
2023/10/08 02:24:53;;;;;;;6.20;4.03;;;;;;;17.47;45.76;98253.13;5037522;28;20562;-71
2023/10/08 02:27:18;;;;;;;5.80;3.60;;;;;;;17.47;45.73;98253.94;5036915;28;20221;-69
2023/10/08 02:29:44;;;;;;;7.93;3.30;;;;;;;17.40;46.19;98252.97;5034035;28;20591;-71
2023/10/08 02:32:09;;;;;;;6.93;4.17;;;;;;;17.41;46.04;98251.13;5036923;28;20207;-69
2023/10/08 02:34:37;;;;;;;7.83;4.37;;;;;;;17.40;46.03;98246.81;5030097;28;20191;-70
2023/10/08 02:37:03;;;;;;;6.50;4.33;;;;;;;17.42;45.57;98244.84;5028670;28;20717;-71
2023/10/08 02:39:30;;;;;;;8.43;4.63;;;;;;;17.39;45.37;98247.84;5026833;28;20462;-70
2023/10/08 02:41:59;;;;;;;7.83;3.73;;;;;;;17.25;45.75;98249.38;4997524;28;20684;-71
2023/10/08 02:44:24;;;;;;;6.83;4.27;;;;;;;17.14;45.75;98263.78;5036822;28;20926;-70
2023/10/08 02:46:51;;;;;;;12.23;4.40;;;;;;;17.10;45.83;98262.50;5041550;28;20442;-71
2023/10/08 02:49:20;;;;;;;13.77;3.93;;;;;;;17.15;46.09;98262.78;5035381;28;20664;-73
2023/10/08 02:51:54;;;;;;;5.67;3.60;;;;;;;17.09;46.14;98252.88;5033063;28;20419;-72
2023/10/08 02:54:23;;;;;;;6.70;3.83;;;;;;;17.07;46.26;98258.38;5025157;28;20423;-70
2023/10/08 02:56:57;;;;;;;7.93;4.17;;;;;;;17.06;46.51;98255.88;5046081;28;20429;-72
2023/10/08 02:59:23;;;;;;;8.20;4.20;;;;;;;17.01;46.44;98254.53;5025065;28;20480;-70
2023/10/08 03:01:55;;;;;;;8.17;4.43;;;;;;;16.99;46.56;98250.41;5030721;28;20429;-69
2023/10/08 03:04:22;;;;;;;9.47;4.60;;;;;;;17.00;46.74;98252.06;5025305;28;20188;-71
2023/10/08 03:06:52;;;;;;;8.60;3.83;;;;;;;16.98;46.75;98241.66;5029869;28;20619;-69
2023/10/08 03:09:24;;;;;;;11.10;4.23;;;;;;;16.94;46.90;98235.03;5033471;28;20505;-70
2023/10/08 03:11:50;;;;;;;6.57;3.90;;;;;;;16.91;46.87;98245.09;5033509;28;20438;-71
2023/10/08 03:14:21;;;;;;;8.50;4.03;;;;;;;16.91;46.67;98243.28;5033018;28;20538;-70
2023/10/08 03:16:58;;;;;;;10.23;4.50;;;;;;;16.80;46.99;98238.31;5044964;28;20509;-70
2023/10/08 03:19:24;;;;;;;10.47;5.60;;;;;;;16.79;46.80;98240.16;5035427;28;20458;-70
2023/10/08 03:22:03;;;;;;;7.87;4.00;;;;;;;16.83;46.54;98241.47;5040198;28;20673;-72
2023/10/08 03:27:15;;;;;;;8.03;4.73;;;;;;;16.82;46.87;98234.50;5032689;28;20526;-70
2023/10/08 03:29:43;;;;;;;9.30;4.37;;;;;;;16.82;46.76;98229.22;5034060;28;20442;-71
2023/10/08 03:32:13;;;;;;;6.63;4.43;;;;;;;16.81;46.88;98232.03;5031794;28;20446;-71
2023/10/08 03:34:43;;;;;;;13.10;4.77;;;;;;;16.84;46.24;98227.22;5030889;28;20411;-69
2023/10/08 03:37:10;;;;;;;8.33;4.90;;;;;;;16.88;46.02;98238.34;5028440;28;20943;-70
2023/10/08 03:39:51;;;;;;;8.13;4.37;;;;;;;16.84;46.34;98237.00;5030140;28;20501;-71
2023/10/08 03:42:23;;;;;;;13.40;4.90;;;;;;;16.81;47.20;98242.63;5042775;28;20432;-70
2023/10/08 03:44:51;;;;;;;6.70;4.10;;;;;;;16.79;47.43;98239.31;5040741;28;20495;-72
2023/10/08 03:47:18;;;;;;;8.03;3.87;;;;;;;16.67;47.86;98250.25;5036804;28;21026;-72
2023/10/08 03:49:50;;;;;;;12.77;4.60;;;;;;;16.63;48.09;98256.88;5029695;28;21065;-71
2023/10/08 03:52:16;;;;;;;12.70;5.00;;;;;;;16.63;48.36;98256.88;5019308;28;20988;-72
2023/10/08 03:54:48;;;;;;;9.70;4.80;;;;;;;16.56;48.12;98254.06;5026559;28;20437;-71
2023/10/08 03:57:19;;;;;;;9.73;5.20;;;;;;;16.55;48.09;98256.84;5028792;28;20525;-72
2023/10/08 03:59:48;;;;;;;8.00;5.07;;;;;;;16.52;48.26;98254.53;5029032;28;20533;-70
2023/10/08 04:02:14;;;;;;;8.37;4.27;;;;;;;16.56;47.99;98258.50;5034390;28;20437;-70
2023/10/08 04:04:49;;;;;;;8.47;4.60;;;;;;;16.49;48.09;98254.88;5029433;28;20561;-74
2023/10/08 04:07:25;;;;;;;10.07;5.30;;;;;;;16.44;48.37;98258.03;5029543;28;20425;-71
2023/10/08 04:09:59;;;;;;;7.40;4.63;;;;;;;16.46;48.48;98263.16;5039385;28;20467;-71
2023/10/08 04:12:26;;;;;;;7.63;4.33;;;;;;;16.46;48.73;98257.84;5039716;28;20418;-72
2023/10/08 04:14:55;;;;;;;7.13;4.30;;;;;;;16.37;48.89;98268.44;5031418;28;20431;-71
2023/10/08 04:17:22;;;;;;;11.20;5.57;;;;;;;16.37;48.89;98257.84;5032635;28;20835;-69
2023/10/08 04:19:48;;;;;;;8.10;4.20;;;;;;;16.39;48.80;98255.03;5033545;28;20539;-70
2023/10/08 04:22:16;;;;;;;9.27;4.63;;;;;;;16.41;48.24;98253.88;5030437;28;20426;-70
2023/10/08 04:24:43;;;;;;;10.27;4.63;;;;;;;16.41;48.36;98253.88;5029843;28;20192;-70
2023/10/08 04:27:09;;;;;;;8.60;4.77;;;;;;;16.33;48.59;98243.28;5041216;28;20429;-72
2023/10/08 04:29:37;;;;;;;8.93;4.70;;;;;;;16.30;48.79;98235.69;5039688;28;20996;-73
2023/10/08 04:32:12;;;;;;;8.10;4.40;;;;;;;16.35;48.18;98243.97;5021814;28;20250;-70
2023/10/08 04:34:38;;;;;;;8.57;4.77;;;;;;;16.32;48.56;98233.69;5032215;28;20463;-72
2023/10/08 04:37:12;;;;;;;12.70;4.17;;;;;;;16.32;48.70;98231.06;5024872;28;20443;-73
2023/10/08 04:39:39;;;;;;;10.70;4.80;;;;;;;16.28;48.63;98230.56;5034952;28;20227;-71
2023/10/08 04:42:10;;;;;;;8.83;4.53;;;;;;;16.28;48.71;98221.78;5034440;28;20420;-70
2023/10/08 04:44:39;;;;;;;7.00;4.20;;;;;;;16.27;48.76;98231.56;5032905;28;20439;-71
2023/10/08 04:47:06;;;;;;;6.90;4.10;;;;;;;16.30;49.04;98230.38;5029806;28;20433;-71
2023/10/08 04:49:33;;;;;;;8.90;4.93;;;;;;;16.32;48.77;98227.59;5019198;28;20464;-73
2023/10/08 04:52:16;;;;;;;10.10;4.83;;;;;;;16.35;48.51;98233.38;5012297;28;22456;-69
2023/10/08 04:54:50;;;;;;;8.00;4.43;;;;;;;16.41;48.49;98232.72;5013150;28;20985;-69
2023/10/08 04:57:17;;;;;;;10.67;4.50;;;;;;;16.41;48.11;98234.53;5017669;28;20464;-70
2023/10/08 04:59:43;;;;;;;9.87;4.10;;;;;;;16.35;48.80;98236.03;5025041;28;20473;-71
2023/10/08 05:02:34;;;;;;;10.47;4.23;;;;;;;16.36;49.10;98248.25;5032040;28;20448;-70
2023/10/08 05:13:14;;;;;;;12.40;4.30;;;;;;;16.35;48.70;98243.13;5029621;28;20440;-69
2023/10/08 05:15:41;;;;;;;7.03;4.20;;;;;;;16.30;49.11;98246.25;5028593;28;20693;-69
2023/10/08 05:28:36;;;;;;;11.60;4.07;;;;;;;16.20;49.70;98246.41;5032380;28;20421;-69
2023/10/08 05:39:29;;;;;;;7.03;4.10;;;;;;;16.17;49.97;98261.78;5027989;28;20971;-72
2023/10/08 05:42:16;;;;;;;14.13;5.17;;;;;;;16.15;49.95;98263.75;5032072;28;20437;-71
2023/10/08 05:53:01;;;;;;;11.70;4.73;;;;;;;16.15;50.73;98275.16;5024028;28;20470;-71
2023/10/08 05:55:47;;;;;;;8.67;5.03;;;;;;;16.20;50.33;98272.84;5028331;28;20836;-70
2023/10/08 05:58:13;;;;;;;7.60;4.90;;;;;;;16.22;50.19;98275.34;5019339;28;20437;-70
2023/10/08 06:01:05;;;;;;;16.40;4.97;;;;;;;16.19;50.27;98284.41;5026002;28;20604;-71
2023/10/08 06:03:59;;;;;;;10.53;4.43;;;;;;;16.16;50.30;98286.56;5032510;28;20439;-71
2023/10/08 06:06:36;;;;;;;9.63;5.10;;;;;;;16.17;50.81;98280.28;5026728;28;20422;-72
2023/10/08 06:12:29;;;;;;;9.43;5.17;;;;;;;16.26;50.37;98281.94;5036888;28;20449;-71
2023/10/08 06:14:52;;;;;;;10.73;5.07;;;;;;;16.29;50.56;98281.63;5027773;28;20549;-71
2023/10/08 06:17:33;;;;;;;7.30;5.00;;;;;;;16.38;50.67;98285.13;5024464;28;20430;-71
2023/10/08 06:20:09;;;;;;;10.60;4.57;;;;;;;16.38;50.77;98285.94;5027652;28;20466;-70
2023/10/08 06:22:36;;;;;;;6.73;4.03;;;;;;;16.40;50.82;98283.97;5039236;28;20433;-70
2023/10/08 06:25:17;;;;;;;11.90;4.30;;;;;;;16.48;50.50;98279.69;5026151;28;20439;-70
2023/10/08 06:27:44;;;;;;;8.93;4.63;;;;;;;16.47;50.39;98283.31;5034852;28;20899;-72
2023/10/08 06:30:16;;;;;;;8.93;5.13;;;;;;;16.50;50.29;98280.34;5030253;28;20461;-70
2023/10/08 06:32:45;;;;;;;9.93;4.80;;;;;;;16.52;50.44;98267.75;5033178;28;20439;-70
2023/10/08 06:35:17;;;;;;;9.30;4.57;;;;;;;16.55;50.56;98272.75;5026932;28;21175;-72
2023/10/08 06:37:45;;;;;;;10.40;4.80;;;;;;;16.61;50.93;98269.44;5038120;28;21142;-71
2023/10/08 06:40:40;;;;;;;10.70;5.00;;;;;;;16.62;50.55;98273.75;5030717;28;20537;-70
2023/10/08 06:43:03;;;;;;;8.53;4.90;;;;;;;16.65;51.05;98278.69;5035631;28;20496;-69
2023/10/08 06:45:30;;;;;;;9.43;5.20;;;;;;;16.62;51.16;98270.25;5028389;28;20517;-69
2023/10/08 06:47:57;;;;;;;6.70;4.93;;;;;;;16.63;51.18;98272.75;5031659;28;20449;-70
2023/10/08 06:50:22;;;;;;;12.20;5.30;;;;;;;16.66;51.20;98276.88;5035632;28;20961;-71
2023/10/08 06:52:49;;;;;;;10.27;5.13;;;;;;;16.65;51.59;98281.34;5031994;28;20572;-71
2023/10/08 06:55:17;;;;;;;7.67;4.80;;;;;;;16.70;50.82;98280.84;5037825;28;20223;-71
2023/10/08 06:57:43;;;;;;;9.70;5.33;;;;;;;16.73;50.93;98272.56;5028142;28;20485;-71
2023/10/08 07:00:12;;;;;;;10.70;5.33;;;;;;;16.80;51.06;98275.38;5027398;28;20490;-70
2023/10/08 07:02:39;;;;;;;11.30;4.90;;;;;;;16.84;51.42;98269.59;5031398;28;20199;-71
2023/10/08 07:05:09;;;;;;;7.17;4.90;;;;;;;16.91;51.42;98269.75;5026862;28;20930;-71
2023/10/08 07:07:39;;;;;;;8.57;4.77;;;;;;;17.00;51.66;98263.50;5017173;28;20424;-70
2023/10/08 07:10:10;;;;;;;12.03;5.60;;;;;;;17.13;51.48;98272.75;5024870;28;20450;-70
2023/10/08 07:12:36;;;;;;;10.30;5.20;;;;;;;17.24;51.37;98277.69;5029047;28;20434;-70
2023/10/08 07:15:03;;;;;;;7.93;5.20;;;;;;;17.35;51.13;98273.84;5027875;28;20434;-71
2023/10/08 07:17:40;;;;;;;8.17;4.97;;;;;;;17.45;50.96;98284.25;5040915;28;20198;-71
2023/10/08 07:20:13;;;;;;;8.00;5.00;;;;;;;17.57;51.28;98290.03;5024625;28;20540;-72
2023/10/08 07:22:39;;;;;;;11.37;4.70;;;;;;;17.69;51.18;98293.97;5026812;28;20846;-71
2023/10/08 07:25:08;;;;;;;14.33;4.63;;;;;;;17.74;50.84;98290.78;5037929;28;20539;-72
2023/10/08 07:27:37;;;;;;;8.67;4.87;;;;;;;17.80;50.52;98292.75;5026594;28;20199;-71
2023/10/08 07:30:10;;;;;;;8.53;4.60;;;;;;;17.89;49.92;98299.69;5023639;28;20607;-71
2023/10/08 07:32:39;;;;;;;11.63;4.27;;;;;;;18.04;49.27;98301.63;5026003;28;21027;-70
2023/10/08 07:37:47;;;;;;;11.90;4.70;;;;;;;18.33;49.11;98300.13;5028033;28;20431;-71
2023/10/08 07:40:13;;;;;;;7.50;4.10;;;;;;;18.46;49.01;98305.69;5026660;28;20473;-72
2023/10/08 07:42:38;;;;;;;9.93;4.00;;;;;;;18.57;48.75;98302.63;5031853;28;20477;-71
2023/10/08 07:45:04;;;;;;;9.57;5.20;;;;;;;18.69;48.70;98304.88;5024207;28;20883;-72
2023/10/08 07:47:30;;;;;;;10.40;4.57;;;;;;;18.80;48.50;98299.13;5032112;28;20206;-69
2023/10/08 07:49:56;;;;;;;7.20;4.30;;;;;;;18.91;48.49;98300.53;5028759;28;20446;-71
2023/10/08 07:52:21;;;;;;;6.97;4.27;;;;;;;19.03;47.85;98292.97;5031208;28;20570;-72
2023/10/08 07:54:47;;;;;;;6.60;3.83;;;;;;;19.15;47.39;98294.19;5030342;28;20311;-71
2023/10/08 07:57:17;;;;;;;7.17;4.17;;;;;;;19.27;46.97;98304.41;5038177;28;20195;-71
2023/10/08 07:59:46;;;;;;;26.33;4.87;;;;;;;19.41;47.00;98295.59;5031866;28;20218;-70
2023/10/08 08:02:13;;;;;;;8.90;4.37;;;;;;;19.53;46.86;98290.66;5023283;28;20492;-70
2023/10/08 08:04:40;;;;;;;4.63;3.50;;;;;;;19.64;46.76;98281.41;5026757;28;20426;-70
2023/10/08 08:07:06;;;;;;;9.50;4.80;;;;;;;19.71;46.74;98273.53;5026542;28;20445;-70
2023/10/08 08:09:37;;;;;;;10.30;4.50;;;;;;;19.76;46.68;98274.63;5029881;28;20440;-72
2023/10/08 08:12:11;;;;;;;10.37;3.97;;;;;;;19.80;46.53;98265.22;5035234;28;20993;-71
2023/10/08 08:14:40;;;;;;;6.50;4.30;;;;;;;19.85;46.40;98282.47;5031181;28;20496;-70
2023/10/08 08:17:13;;;;;;;8.37;4.70;;;;;;;19.90;46.22;98278.28;5028110;28;20430;-71
2023/10/08 08:19:47;;;;;;;8.10;4.47;;;;;;;19.92;46.24;98278.94;5038606;28;20473;-70
2023/10/08 08:22:20;;;;;;;7.97;4.30;;;;;;;19.97;46.26;98283.69;5028227;28;20454;-72
2023/10/08 08:27:38;;;;;;;6.97;3.77;;;;;;;20.17;46.64;98323.00;5032740;28;20431;-71
2023/10/08 08:30:10;;;;;;;10.23;4.77;;;;;;;20.40;46.36;98331.69;5021439;28;20550;-70
2023/10/08 08:32:39;;;;;;;13.10;5.40;;;;;;;20.65;45.82;98347.28;5028238;28;20441;-72
2023/10/08 08:35:07;;;;;;;7.20;4.23;;;;;;;20.99;46.09;98348.44;5027157;28;20537;-73
2023/10/08 08:37:35;;;;;;;6.67;3.90;;;;;;;21.38;46.36;98348.13;5032138;28;20580;-71
2023/10/08 08:40:07;;;;;;;11.17;4.43;;;;;;;21.65;45.76;98351.00;5030434;28;20555;-70
2023/10/08 08:42:35;;;;;;;8.33;3.80;;;;;;;21.94;43.35;98356.09;5036906;28;20433;-69
2023/10/08 08:45:03;;;;;;;12.23;4.00;;;;;;;22.17;41.53;98351.47;5022550;28;20438;-71
2023/10/08 08:47:28;;;;;;;8.50;3.50;;;;;;;22.36;40.83;98352.56;5018304;28;20430;-72
2023/10/08 08:49:57;;;;;;;14.80;4.60;;;;;;;22.45;39.75;98354.06;5020091;28;21072;-71
2023/10/08 08:52:22;;;;;;;13.63;3.93;;;;;;;22.55;39.45;98361.69;5028513;28;20204;-71
2023/10/08 08:54:48;;;;;;;12.33;4.00;;;;;;;22.63;40.12;98363.34;5028448;28;20508;-70
2023/10/08 08:57:16;;;;;;;7.50;3.50;;;;;;;22.80;40.25;98369.13;5029534;28;20279;-71
2023/10/08 08:59:51;;;;;;;9.53;4.07;;;;;;;22.95;39.80;98367.13;5030755;28;20203;-72
2023/10/08 09:02:18;;;;;;;6.47;3.40;;;;;;;22.98;39.42;98365.88;5030578;28;21106;-71
2023/10/08 09:04:45;;;;;;;12.63;3.60;;;;;;;22.98;40.24;98374.72;5025474;28;21015;-70
2023/10/08 09:07:12;;;;;;;8.13;4.00;;;;;;;22.94;39.96;98364.63;5021755;28;20525;-71
2023/10/08 09:09:40;;;;;;;12.73;3.57;;;;;;;22.89;39.00;98361.75;5037707;28;20445;-70
2023/10/08 09:12:07;;;;;;;10.80;3.40;;;;;;;22.86;39.50;98366.47;5023962;28;20500;-69
2023/10/08 09:14:33;;;;;;;9.73;3.60;;;;;;;;;;5029332;28;20487;-72
2023/10/08 09:17:00;;;;;;;8.27;3.43;;;;;;;23.04;37.74;98358.88;5025889;28;20802;-70
2023/10/08 09:19:26;;;;;;;8.23;3.53;;;;;;;23.23;38.01;98357.28;5027532;28;20466;-70
2023/10/08 09:22:12;;;;;;;10.43;4.07;;;;;;;23.34;37.13;98358.50;5031540;28;20513;-73
2023/10/08 09:24:39;;;;;;;11.60;3.80;;;;;;;23.73;36.94;98356.81;5034095;28;20441;-72
2023/10/08 09:27:06;;;;;;;14.63;3.80;;;;;;;24.07;35.59;98352.19;5029097;28;20434;-72
2023/10/08 09:29:32;;;;;;;7.07;3.30;;;;;;;24.64;35.45;98352.34;5020663;28;20445;-71
2023/10/08 09:31:59;;;;;;;12.00;3.83;;;;;;;25.22;33.95;98353.16;5032927;28;20433;-71
2023/10/08 09:34:28;;;;;;;10.77;3.70;;;;;;;25.50;33.25;98356.47;5025077;28;20210;-72
2023/10/08 09:36:56;;;;;;;9.10;3.47;;;;;;;25.42;32.17;98352.22;5033151;28;20533;-72
2023/10/08 09:39:25;;;;;;;9.33;3.53;;;;;;;25.29;33.01;98356.63;5030142;28;20475;-70
2023/10/08 09:41:53;;;;;;;13.13;4.27;;;;;;;25.34;32.92;98355.13;5036266;28;20543;-70
2023/10/08 09:44:19;;;;;;;14.70;4.00;;;;;;;25.42;32.53;98352.22;5026913;28;20435;-72
2023/10/08 09:46:48;;;;;;;7.27;3.40;;;;;;;25.41;32.85;98348.69;5026277;28;20842;-72
2023/10/08 09:49:18;;;;;;;17.50;4.33;;;;;;;25.45;33.08;98349.09;5022626;28;20188;-70
2023/10/08 09:51:45;;;;;;;7.80;3.50;;;;;;;25.44;33.32;98347.44;5021688;28;20550;-70
2023/10/08 09:54:40;;;;;;;10.10;3.43;;;;;;;25.40;33.36;98343.53;5023592;28;20492;-70
2023/10/08 09:57:06;;;;;;;9.70;4.10;;;;;;;25.39;33.24;98355.28;5025180;28;20524;-73
2023/10/08 09:59:33;;;;;;;15.03;3.80;;;;;;;25.33;33.20;98353.50;5026378;28;20862;-69
2023/10/08 10:01:59;;;;;;;8.67;3.73;;;;;;;25.23;33.06;98346.75;5031382;28;21002;-70
2023/10/08 10:04:28;;;;;;;14.50;3.70;;;;;;;25.14;33.50;98348.09;5027487;28;20440;-71
2023/10/08 10:06:57;;;;;;;10.13;4.10;;;;;;;25.09;33.52;98347.91;5031523;28;20295;-70
2023/10/08 10:09:24;;;;;;;5.80;3.63;;;;;;;25.05;34.47;98344.03;5026719;28;20437;-71
2023/10/08 10:11:51;;;;;;;8.23;4.00;;;;;;;25.04;33.96;98339.72;5026001;28;20446;-71
2023/10/08 10:14:17;;;;;;;8.87;4.00;;;;;;;25.05;34.31;98346.72;5027045;28;20521;-70
2023/10/08 10:16:47;;;;;;;12.20;3.90;;;;;;;25.07;34.11;98345.47;5019191;28;20565;-71
2023/10/08 10:19:20;;;;;;;11.07;4.10;;;;;;;25.17;34.22;98347.66;5032786;28;20249;-71
2023/10/08 10:21:47;;;;;;;7.20;3.70;;;;;;;25.28;34.10;98352.31;5015131;28;20991;-69
2023/10/08 10:24:23;;;;;;;10.03;3.57;;;;;;;25.35;34.33;98352.25;5030041;28;21162;-70
2023/10/08 10:26:50;;;;;;;6.03;3.70;;;;;;;25.41;34.53;98361.31;5021222;28;20892;-70
2023/10/08 10:29:20;;;;;;;8.97;3.83;;;;;;;25.43;34.30;98364.59;5023513;28;20434;-71
2023/10/08 10:31:47;;;;;;;8.13;4.17;;;;;;;25.43;34.17;98360.03;5026018;28;20458;-70
2023/10/08 10:34:16;;;;;;;5.90;3.80;;;;;;;25.42;33.16;98357.56;5028891;28;21151;-69
2023/10/08 10:36:42;;;;;;;7.83;3.60;;;;;;;25.44;33.49;98366.22;5030938;28;20457;-70
2023/10/08 10:39:16;;;;;;;13.20;3.80;;;;;;;25.47;33.74;98351.53;5024594;28;20510;-71
2023/10/08 10:41:44;;;;;;;13.33;3.83;;;;;;;25.53;33.75;98358.69;5028482;28;20516;-71
2023/10/08 10:44:10;;;;;;;6.83;4.00;;;;;;;25.45;33.71;98362.50;5028326;28;20854;-71
2023/10/08 10:46:37;;;;;;;6.80;3.80;;;;;;;25.65;33.82;98356.91;5031797;28;20525;-70
2023/10/08 10:49:17;;;;;;;8.33;3.50;;;;;;;25.94;33.85;98361.81;5036157;28;20442;-71
2023/10/08 10:51:42;;;;;;;11.07;3.33;;;;;;;26.13;33.35;98360.75;5026779;28;20442;-70
2023/10/08 10:54:09;;;;;;;10.47;3.47;;;;;;;26.28;32.98;98362.25;5030212;28;20437;-70
2023/10/08 10:56:42;;;;;;;8.90;3.57;;;;;;;26.60;33.29;98362.00;5026462;28;20184;-70
2023/10/08 10:59:27;;;;;;;9.20;3.63;;;;;;;26.94;33.10;98363.19;5032144;28;20465;-69
2023/10/08 11:01:55;;;;;;;7.33;3.73;;;;;;;27.35;32.19;98360.66;5029941;28;20551;-70
2023/10/08 11:04:28;;;;;;;10.33;3.83;;;;;;;27.55;31.57;98356.84;5021541;28;20457;-70
2023/10/08 11:06:58;;;;;;;15.00;4.03;;;;;;;27.68;31.83;98359.28;5029328;28;20943;-71
2023/10/08 11:09:37;;;;;;;9.47;4.00;;;;;;;27.72;31.29;98357.75;5027731;28;20430;-70
2023/10/08 11:12:10;;;;;;;14.87;4.50;;;;;;;27.73;31.68;98355.91;5013848;28;20553;-69
2023/10/08 11:14:41;;;;;;;8.17;3.80;;;;;;;27.64;31.41;98357.31;5027391;28;20427;-69
2023/10/08 11:17:17;;;;;;;8.60;4.27;;;;;;;27.48;31.71;98350.75;5029110;28;20437;-71
2023/10/08 11:19:45;;;;;;;7.77;4.03;;;;;;;27.34;31.89;98350.97;5023900;28;21073;-71
2023/10/08 11:22:18;;;;;;;7.87;4.07;;;;;;;27.20;31.93;98352.25;5025403;28;21127;-71
2023/10/08 11:24:53;;;;;;;8.53;4.50;;;;;;;27.12;32.37;98354.22;5027685;28;20433;-69
2023/10/08 11:27:28;;;;;;;8.50;3.90;;;;;;;27.06;32.42;98349.78;5030445;28;20449;-70
2023/10/08 11:29:59;;;;;;;9.37;4.00;;;;;;;27.00;32.74;98356.06;5025451;28;20803;-70
2023/10/08 11:32:26;;;;;;;10.20;4.60;;;;;;;26.98;32.14;98352.78;5029438;28;20459;-72
2023/10/08 11:35:15;;;;;;;9.50;3.63;;;;;;;26.94;32.28;98348.94;5034941;28;20440;-70
2023/10/08 11:37:45;;;;;;;10.23;3.93;;;;;;;27.05;32.56;98331.16;5031890;28;20422;-70
2023/10/08 11:40:16;;;;;;;9.07;4.10;;;;;;;27.28;32.36;98330.38;5029192;28;20491;-70
2023/10/08 11:42:43;;;;;;;7.30;4.13;;;;;;;27.62;32.28;98336.00;5035759;28;20457;-69
2023/10/08 11:45:19;;;;;;;6.97;3.40;;;;;;;27.90;31.92;98334.44;5041667;28;20958;-70
2023/10/08 11:47:55;;;;;;;7.47;4.10;;;;;;;28.05;31.05;98333.91;5028430;28;21069;-70
2023/10/08 11:50:30;;;;;;;7.80;3.90;;;;;;;28.30;31.17;98327.41;5028573;28;20880;-70
2023/10/08 11:53:01;;;;;;;8.83;3.27;;;;;;;28.60;30.93;98311.00;5036530;28;20982;-71
2023/10/08 11:55:27;;;;;;;13.90;4.50;;;;;;;28.94;30.97;98311.03;5037954;28;20855;-70
2023/10/08 11:57:52;;;;;;;9.90;4.20;;;;;;;29.18;30.05;98302.78;5034180;28;20446;-72
2023/10/08 12:00:22;;;;;;;13.00;4.50;;;;;;;29.38;29.68;98304.16;5029314;28;20235;-70
2023/10/08 12:02:48;;;;;;;11.70;3.87;;;;;;;29.51;29.20;98305.69;5023195;28;20275;-70
2023/10/08 12:05:19;;;;;;;7.80;3.60;;;;;;;29.69;29.53;98288.38;5028880;28;20517;-71
2023/10/08 12:07:48;;;;;;;10.70;4.40;;;;;;;29.74;28.26;98288.41;5034593;28;20210;-72
2023/10/08 12:10:22;;;;;;;12.57;4.77;;;;;;;29.82;28.32;98293.41;5026841;28;20450;-70
2023/10/08 12:12:49;;;;;;;10.97;4.23;;;;;;;29.98;28.26;98286.31;5030070;28;20549;-69
2023/10/08 12:15:19;;;;;;;10.00;4.13;;;;;;;30.18;28.00;98282.22;5033995;28;20427;-70
2023/10/08 12:18:15;;;;;;;8.10;3.40;;;;;;;30.38;27.36;98283.47;5025123;28;20455;-70
2023/10/08 12:20:45;;;;;;;14.43;4.00;;;;;;;30.47;27.24;98280.06;5033234;28;20489;-70
2023/10/08 12:23:10;;;;;;;11.50;3.80;;;;;;;30.58;27.17;98285.59;5029929;28;20525;-69
2023/10/08 12:25:37;;;;;;;11.60;4.20;;;;;;;30.72;27.71;98281.38;5039031;28;20516;-70
2023/10/08 12:28:04;;;;;;;16.63;4.90;;;;;;;30.74;27.06;98284.66;5033332;28;20187;-70
2023/10/08 12:30:30;;;;;;;20.87;4.73;;;;;;;30.72;26.03;98275.97;5026738;28;21201;-71
2023/10/08 12:32:59;;;;;;;11.10;4.30;;;;;;;30.82;26.92;98275.22;5035033;28;20450;-72
2023/10/08 12:35:26;;;;;;;20.10;4.50;;;;;;;30.97;27.12;98277.25;5027783;28;20434;-71